Terminal Aerodrome Forecast
Issued by NWS

Home | Current Version | Previous Version | Graphics & Text | Print | Product List | Glossary On
Versions: 1 2 3 4 5 6 7 8 9 10 11 12 13 14 15
000
FTUS43 KMPX 172114 AAA
TAFRWF
TAF AMD
KRWF 172114Z 1721/1818 06004KT P6SM SCT250
     FM180000 08007KT P6SM BKN040
     FM180900 05006KT 6SM -SN BR OVC020
     FM181100 03006KT 4SM -SN BR OVC015
     FM181300 02009KT 2SM -SN OVC008=

USA.gov is the U.S. government's official web portal to all federal, state and local government web resources and services.